Time;durP1;ratioP1;P1;durP2;ratioP2;P2;SDS_P1;SDS_P2;PMS_P1;PMS_P2;Temp;Humidity;BMP_temperature;BMP_pressure;BME280_temperature;BME280_humidity;BME280_pressure;Samples;Min_cycle;Max_cycle;Signal;HPM_P1;HPM_P2
2022/11/16 00:02:11;;;;;;;5.75;1.50;;;23.10;64.80;;;;;;5020820;28;20044;-73
2022/11/16 00:04:38;;;;;;;5.65;2.53;;;23.10;64.60;;;;;;5024988;28;20037;-74
2022/11/16 00:07:05;;;;;;;11.63;3.00;;;23.10;64.60;;;;;;5020761;28;20041;-74
2022/11/16 00:09:32;;;;;;;5.35;1.23;;;23.10;64.60;;;;;;5022712;28;20026;-73
2022/11/16 00:12:01;;;;;;;8.90;1.75;;;23.10;64.50;;;;;;5019852;28;20021;-76
2022/11/16 00:14:30;;;;;;;7.63;2.13;;;23.10;64.40;;;;;;5024602;28;20057;-75
2022/11/16 00:16:58;;;;;;;7.65;2.13;;;23.10;64.40;;;;;;5032360;28;20041;-73
2022/11/16 00:19:26;;;;;;;5.40;1.85;;;23.10;64.40;;;;;;5023814;28;20026;-71
2022/11/16 00:21:53;;;;;;;7.95;2.67;;;23.10;64.40;;;;;;5023389;28;20022;-75
2022/11/16 00:24:22;;;;;;;27.85;3.33;;;23.10;64.40;;;;;;5023011;28;20032;-74
2022/11/16 00:26:49;;;;;;;10.68;2.05;;;23.00;64.40;;;;;;5024090;28;20587;-74
2022/11/16 00:29:17;;;;;;;6.50;2.45;;;23.00;64.40;;;;;;5024672;28;20017;-76
2022/11/16 00:31:45;;;;;;;10.32;3.40;;;23.00;64.30;;;;;;5024102;28;20076;-73
2022/11/16 00:34:12;;;;;;;4.03;2.30;;;23.00;64.30;;;;;;5023654;28;20032;-71
2022/11/16 00:36:38;;;;;;;6.90;1.75;;;23.00;64.30;;;;;;5026102;28;20838;-73
2022/11/16 00:39:05;;;;;;;9.90;1.83;;;23.00;64.20;;;;;;5025741;28;20401;-73
2022/11/16 00:41:32;;;;;;;4.65;1.75;;;23.00;64.30;;;;;;5025602;28;20060;-71
2022/11/16 00:43:58;;;;;;;9.23;2.97;;;22.90;64.30;;;;;;5025842;28;20377;-72
2022/11/16 00:46:25;;;;;;;6.43;2.85;;;22.90;64.30;;;;;;5024178;28;20030;-71
2022/11/16 00:48:51;;;;;;;7.40;1.65;;;22.90;64.30;;;;;;5028334;28;20084;-73
2022/11/16 00:51:17;;;;;;;11.85;4.03;;;22.90;64.30;;;;;;5025238;28;20025;-71
2022/11/16 00:53:44;;;;;;;27.50;17.23;;;22.80;64.20;;;;;;5025167;28;20033;-71
2022/11/16 00:56:10;;;;;;;24.73;15.98;;;22.80;64.50;;;;;;5022474;28;20029;-72
2022/11/16 00:58:37;;;;;;;17.27;10.20;;;22.80;64.80;;;;;;5026265;28;20014;-71
2022/11/16 01:01:05;;;;;;;14.85;6.22;;;22.80;65.00;;;;;;5021306;28;20053;-72
2022/11/16 01:03:33;;;;;;;15.27;4.57;;;22.80;64.90;;;;;;5023420;28;20122;-70
2022/11/16 01:06:01;;;;;;;7.45;3.42;;;22.80;64.90;;;;;;5029178;28;20547;-71
2022/11/16 01:08:27;;;;;;;7.28;3.40;;;22.70;64.80;;;;;;5024954;28;20033;-73
2022/11/16 01:10:54;;;;;;;12.82;3.20;;;22.70;64.60;;;;;;5027285;28;20424;-71
2022/11/16 01:13:20;;;;;;;7.57;2.22;;;22.70;64.60;;;;;;5027752;28;20033;-73
2022/11/16 01:15:47;;;;;;;9.60;2.75;;;22.70;64.60;;;;;;5027587;28;20057;-70
2022/11/16 01:18:14;;;;;;;6.35;2.92;;;22.70;64.70;;;;;;5022635;28;20126;-70
2022/11/16 01:20:41;;;;;;;9.25;2.60;;;22.60;64.60;;;;;;5027700;28;20104;-71
2022/11/16 01:23:07;;;;;;;8.65;2.35;;;22.70;64.70;;;;;;5024308;28;20512;-68
2022/11/16 01:25:33;;;;;;;3.70;2.50;;;22.60;64.60;;;;;;5022263;28;20080;-71
2022/11/16 01:28:00;;;;;;;8.45;3.05;;;22.60;64.60;;;;;;5028875;28;20079;-71
2022/11/16 01:30:26;;;;;;;9.02;2.97;;;22.60;64.70;;;;;;5052353;28;20024;-70
2022/11/16 01:32:53;;;;;;;10.05;3.50;;;22.60;64.70;;;;;;5028428;28;20029;-72
2022/11/16 01:35:19;;;;;;;10.02;3.63;;;22.60;64.80;;;;;;5026360;28;20022;-71
2022/11/16 01:37:46;;;;;;;6.65;2.63;;;22.60;64.80;;;;;;5027732;28;20017;-72
2022/11/16 01:40:13;;;;;;;8.10;2.97;;;22.50;64.70;;;;;;5023808;28;20052;-72
2022/11/16 01:42:40;;;;;;;12.20;2.70;;;22.50;64.80;;;;;;5023371;28;20068;-71
2022/11/16 01:45:30;;;;;;;12.13;3.38;;;22.50;64.90;;;;;;5023653;28;20049;-70
2022/11/16 01:47:57;;;;;;;7.75;2.33;;;22.50;65.10;;;;;;5023599;28;20048;-72
2022/11/16 01:50:23;;;;;;;11.75;2.95;;;22.50;65.20;;;;;;5023805;28;20354;-71
2022/11/16 01:52:56;;;;;;;13.15;2.83;;;22.50;65.90;;;;;;5023534;28;20075;-72
2022/11/16 01:55:24;;;;;;;7.63;2.28;;;22.50;65.20;;;;;;5025525;28;20010;-72
2022/11/16 01:57:51;;;;;;;10.57;3.03;;;22.40;65.10;;;;;;5024152;28;20026;-75
2022/11/16 02:00:18;;;;;;;7.40;2.30;;;22.40;65.10;;;;;;5020437;28;20071;-74
2022/11/16 02:02:44;;;;;;;7.43;2.35;;;22.40;65.10;;;;;;5022759;28;20060;-72
2022/11/16 02:05:16;;;;;;;9.32;2.53;;;22.40;65.20;;;;;;5026819;28;20125;-70
2022/11/16 04:25:26;;;;;;;26.25;14.23;;;21.60;65.90;;;;;;5061284;28;20872;-76
2022/11/16 04:28:12;;;;;;;22.08;14.60;;;21.60;65.90;;;;;;5057561;28;20020;-75
2022/11/16 04:39:00;;;;;;;8.43;3.97;;;21.60;65.40;;;;;;5063011;28;20036;-74
2022/11/16 04:44:13;;;;;;;13.02;4.50;;;21.60;65.20;;;;;;5059962;28;20050;-76
2022/11/16 04:49:24;;;;;;;8.95;2.67;;;21.60;65.00;;;;;;5058502;28;20044;-78
2022/11/16 04:51:51;;;;;;;8.20;3.10;;;21.60;64.90;;;;;;5055688;28;20430;-77
2022/11/16 04:54:18;;;;;;;8.90;3.00;;;21.70;65.00;;;;;;5061463;28;20467;-77
2022/11/16 04:56:44;;;;;;;12.98;3.50;;;21.60;64.80;;;;;;5055876;28;20017;-73
2022/11/16 04:59:11;;;;;;;9.60;2.40;;;21.70;64.90;;;;;;5061214;28;20423;-73
2022/11/16 05:04:22;;;;;;;12.27;5.07;;;21.60;64.70;;;;;;5057899;28;20051;-75
2022/11/16 05:06:48;;;;;;;6.82;3.45;;;21.70;64.60;;;;;;5060990;28;20033;-76
2022/11/16 05:09:15;;;;;;;15.20;2.80;;;21.60;64.50;;;;;;5056281;28;20024;-77
2022/11/16 05:11:41;;;;;;;4.47;2.42;;;21.70;64.50;;;;;;5056273;28;20100;-78
2022/11/16 05:14:09;;;;;;;4.97;2.53;;;21.70;64.40;;;;;;5052406;28;20037;-77
2022/11/16 05:16:36;;;;;;;12.00;2.83;;;21.70;64.30;;;;;;5048932;28;20476;-74
2022/11/16 05:21:47;;;;;;;5.15;2.17;;;21.70;64.10;;;;;;5045421;28;20040;-77
2022/11/16 05:27:04;;;;;;;10.70;3.07;;;21.80;64.10;;;;;;5038657;28;20564;-77
2022/11/16 05:29:30;;;;;;;8.25;2.03;;;21.80;64.00;;;;;;5041167;28;20112;-77
2022/11/16 05:31:57;;;;;;;12.02;2.17;;;21.80;63.90;;;;;;5043301;28;20017;-76
2022/11/16 05:34:24;;;;;;;6.95;3.20;;;21.80;63.80;;;;;;5049404;28;20051;-76
2022/11/16 05:36:50;;;;;;;9.82;2.30;;;21.90;63.80;;;;;;5041717;28;20082;-78
2022/11/16 05:39:18;;;;;;;8.63;2.78;;;21.90;64.40;;;;;;5045587;28;20096;-74
2022/11/16 05:41:45;;;;;;;6.47;2.30;;;21.90;63.70;;;;;;5039222;28;20076;-76
2022/11/16 05:44:12;;;;;;;13.25;2.80;;;21.90;63.70;;;;;;5042233;28;20041;-77
2022/11/16 05:46:39;;;;;;;12.25;3.42;;;22.00;63.80;;;;;;5043852;28;20033;-77
2022/11/16 05:49:06;;;;;;;7.55;2.67;;;22.00;64.20;;;;;;5041048;28;20029;-78
2022/11/16 05:51:37;;;;;;;7.40;1.85;;;22.00;64.20;;;;;;5042122;28;20475;-78
2022/11/16 05:54:04;;;;;;;11.43;2.53;;;22.10;64.10;;;;;;5041402;28;20499;-79
2022/11/16 05:56:31;;;;;;;8.18;2.40;;;22.10;64.20;;;;;;5042170;28;20382;-74
2022/11/16 05:58:58;;;;;;;20.60;3.15;;;22.10;64.00;;;;;;5045460;28;20379;-80
2022/11/16 06:01:24;;;;;;;8.40;2.17;;;22.10;63.90;;;;;;5043578;28;20044;-78
2022/11/16 06:03:51;;;;;;;7.32;2.22;;;22.20;63.80;;;;;;5038612;28;20048;-81
2022/11/16 06:06:19;;;;;;;7.65;2.63;;;22.20;63.50;;;;;;5044345;28;20060;-80
2022/11/16 06:08:45;;;;;;;7.72;2.40;;;22.20;63.40;;;;;;5046238;28;20017;-81
2022/11/16 06:11:12;;;;;;;9.57;2.05;;;22.30;63.20;;;;;;5041811;28;20037;-81
2022/11/16 06:13:39;;;;;;;7.03;1.90;;;22.30;63.00;;;;;;5042331;28;20721;-81
2022/11/16 06:16:05;;;;;;;6.50;1.98;;;22.30;62.80;;;;;;5041789;28;20053;-81
2022/11/16 06:18:35;;;;;;;5.68;2.63;;;22.40;62.80;;;;;;5041799;28;20017;-79
2022/11/16 06:21:01;;;;;;;5.50;1.88;;;22.40;62.60;;;;;;5045157;28;20111;-79
2022/11/16 06:23:28;;;;;;;7.10;2.67;;;22.40;62.40;;;;;;5047140;28;20506;-81
2022/11/16 06:25:55;;;;;;;10.18;2.72;;;22.50;62.30;;;;;;5043700;28;20472;-82
2022/11/16 06:28:22;;;;;;;10.60;3.30;;;22.50;62.10;;;;;;5043926;28;20029;-81
2022/11/16 06:30:48;;;;;;;10.68;2.50;;;22.60;62.00;;;;;;5044019;28;20031;-81
2022/11/16 06:33:16;;;;;;;11.10;2.70;;;22.60;61.90;;;;;;5045830;28;20033;-82
2022/11/16 06:35:42;;;;;;;12.27;2.80;;;22.60;61.80;;;;;;5042602;28;20502;-76
2022/11/16 06:38:09;;;;;;;4.40;2.28;;;22.60;61.50;;;;;;5043984;28;20446;-80
2022/11/16 06:40:37;;;;;;;8.88;2.35;;;22.70;61.30;;;;;;5044164;28;20385;-82
2022/11/16 06:43:04;;;;;;;4.75;2.90;;;22.70;61.10;;;;;;5038659;28;20486;-81
2022/11/16 06:45:30;;;;;;;6.55;1.83;;;22.80;60.90;;;;;;5041581;28;20033;-80
2022/11/16 06:47:56;;;;;;;7.55;2.30;;;22.80;60.70;;;;;;5046980;28;20021;-78
2022/11/16 06:50:23;;;;;;;10.23;2.75;;;22.80;60.50;;;;;;5043987;28;20025;-80
2022/11/16 06:52:49;;;;;;;10.32;3.20;;;22.90;60.30;;;;;;5045686;28;20021;-78
2022/11/16 06:55:16;;;;;;;4.35;2.15;;;22.90;60.00;;;;;;5037968;28;20021;-78
2022/11/16 06:57:43;;;;;;;9.93;2.20;;;22.90;59.80;;;;;;5045518;28;20037;-80
2022/11/16 07:00:10;;;;;;;8.30;2.63;;;22.90;59.80;;;;;;5048329;28;20088;-82
2022/11/16 07:02:38;;;;;;;8.30;2.38;;;22.90;59.70;;;;;;5045936;28;20063;-81
2022/11/16 07:05:06;;;;;;;4.40;1.90;;;22.90;59.60;;;;;;5048847;28;20044;-82
2022/11/16 07:07:33;;;;;;;6.03;2.10;;;22.90;59.50;;;;;;5040231;28;20025;-82
2022/11/16 07:09:59;;;;;;;7.20;2.00;;;22.90;59.20;;;;;;5040678;28;20437;-82
2022/11/16 07:12:26;;;;;;;8.55;1.98;;;22.90;59.60;;;;;;5046466;28;20042;-79
2022/11/16 07:14:52;;;;;;;5.07;2.13;;;23.00;58.80;;;;;;5043130;28;20087;-79
2022/11/16 07:17:19;;;;;;;8.63;2.00;;;23.00;58.70;;;;;;5042538;28;20025;-79
2022/11/16 07:19:45;;;;;;;6.90;1.83;;;23.10;58.50;;;;;;5043402;28;20028;-83
2022/11/16 07:22:11;;;;;;;6.47;1.90;;;23.10;58.40;;;;;;5045531;28;20025;-83
2022/11/16 07:24:38;;;;;;;3.60;2.47;;;23.20;58.30;;;;;;5043131;28;20028;-81
2022/11/16 07:27:07;;;;;;;4.18;1.92;;;23.20;58.30;;;;;;5042148;28;20036;-77
2022/11/16 07:29:34;;;;;;;6.63;2.08;;;23.30;58.10;;;;;;5040538;28;20132;-82
2022/11/16 07:32:00;;;;;;;6.72;2.25;;;23.30;57.90;;;;;;5048583;28;20009;-82
2022/11/16 07:34:27;;;;;;;7.97;2.00;;;23.30;57.50;;;;;;5040316;28;20036;-83
2022/11/16 07:36:53;;;;;;;12.18;4.72;;;23.40;57.20;;;;;;5046545;28;20032;-78
2022/11/16 07:39:20;;;;;;;12.43;3.88;;;23.40;57.20;;;;;;5044745;28;20034;-78
2022/11/16 07:41:49;;;;;;;17.58;3.47;;;23.40;57.30;;;;;;5045089;28;20068;-79
2022/11/16 07:44:15;;;;;;;12.75;2.53;;;23.50;57.20;;;;;;5049349;28;20091;-83
2022/11/16 07:46:42;;;;;;;18.23;3.63;;;23.60;57.20;;;;;;5042515;28;20024;-79
2022/11/16 07:49:14;;;;;;;12.40;2.35;;;23.60;56.80;;;;;;5043179;28;20026;-77
2022/11/16 07:51:41;;;;;;;5.78;2.63;;;23.70;56.80;;;;;;5047688;28;20021;-81
2022/11/16 07:54:09;;;;;;;17.10;3.50;;;23.70;56.50;;;;;;5041596;28;20044;-80
2022/11/16 07:56:36;;;;;;;13.23;2.95;;;23.80;56.10;;;;;;5045953;28;20022;-75
2022/11/16 07:59:02;;;;;;;15.02;4.72;;;23.80;55.50;;;;;;5046943;28;20021;-77
2022/11/16 08:01:29;;;;;;;8.80;1.50;;;23.90;55.70;;;;;;5041561;28;20029;-78
2022/11/16 08:03:55;;;;;;;3.85;2.00;;;23.90;55.00;;;;;;5040377;28;20017;-79
2022/11/16 08:06:27;;;;;;;8.63;2.15;;;24.00;54.70;;;;;;5043481;28;20032;-74
2022/11/16 08:08:53;;;;;;;10.63;2.95;;;24.00;54.60;;;;;;5040685;28;20033;-74
2022/11/16 08:11:20;;;;;;;17.95;3.97;;;24.10;54.70;;;;;;5046509;28;20029;-71
2022/11/16 08:13:47;;;;;;;10.27;2.47;;;24.10;54.70;;;;;;5043835;28;20032;-77
2022/11/16 08:16:17;;;;;;;13.15;4.03;;;24.10;54.60;;;;;;5039435;28;20048;-76
2022/11/16 08:18:44;;;;;;;10.70;2.60;;;24.20;54.50;;;;;;5043199;28;20088;-73
2022/11/16 08:21:13;;;;;;;5.47;1.70;;;24.30;54.30;;;;;;5040139;28;20061;-79
2022/11/16 08:23:40;;;;;;;5.50;2.22;;;24.30;53.90;;;;;;5047561;28;20108;-81
2022/11/16 08:26:10;;;;;;;7.30;2.33;;;24.40;53.50;;;;;;5037251;28;20028;-79
2022/11/16 08:28:36;;;;;;;7.05;1.88;;;24.40;53.30;;;;;;5043581;28;20009;-80
2022/11/16 08:31:14;;;;;;;6.25;2.55;;;24.50;53.60;;;;;;5041903;28;20419;-77
2022/11/16 08:33:41;;;;;;;11.65;2.80;;;24.50;53.60;;;;;;5043539;28;20021;-77
2022/11/16 08:36:11;;;;;;;6.50;1.70;;;24.50;53.80;;;;;;5040349;28;20072;-78
2022/11/16 08:38:39;;;;;;;7.85;2.75;;;24.40;54.00;;;;;;5046473;28;20070;-70
2022/11/16 08:41:06;;;;;;;33.20;3.05;;;24.40;54.00;;;;;;5042552;28;20030;-70
2022/11/16 08:43:32;;;;;;;42.92;5.70;;;24.40;54.40;;;;;;5039476;28;20009;-78
2022/11/16 08:45:59;;;;;;;28.63;4.20;;;24.40;55.30;;;;;;5042058;28;20025;-76
2022/11/16 08:48:26;;;;;;;26.65;4.93;;;24.30;55.60;;;;;;5045459;28;20480;-74
2022/11/16 08:50:53;;;;;;;29.67;4.07;;;24.40;55.60;;;;;;5034515;28;20032;-72
2022/11/16 08:53:19;;;;;;;21.48;4.22;;;24.40;55.80;;;;;;5048529;28;20025;-80
2022/11/16 08:55:46;;;;;;;10.25;3.92;;;24.40;55.60;;;;;;5047369;28;20032;-82
2022/11/16 08:58:12;;;;;;;11.65;2.58;;;24.40;55.30;;;;;;5049486;28;20096;-79
2022/11/16 09:00:39;;;;;;;6.45;2.30;;;24.50;54.90;;;;;;5044897;28;20146;-72
2022/11/16 09:03:05;;;;;;;27.30;6.30;;;24.60;54.40;;;;;;5042700;28;20029;-80
2022/11/16 09:05:32;;;;;;;14.30;2.80;;;24.60;54.20;;;;;;5046293;28;20036;-76
2022/11/16 09:07:58;;;;;;;16.40;1.88;;;24.60;54.50;;;;;;5050688;28;20036;-76
2022/11/16 09:10:25;;;;;;;6.47;1.58;;;24.60;55.00;;;;;;5050113;28;20025;-79
2022/11/16 09:12:52;;;;;;;10.40;3.75;;;24.70;55.30;;;;;;5036436;28;20009;-77
2022/11/16 09:15:19;;;;;;;9.70;2.78;;;24.70;55.40;;;;;;5049359;28;20488;-78
2022/11/16 09:17:46;;;;;;;4.00;1.70;;;24.80;55.70;;;;;;5043572;28;20017;-80
2022/11/16 09:20:13;;;;;;;5.18;1.67;;;24.90;55.50;;;;;;5042380;28;20104;-79
2022/11/16 09:22:39;;;;;;;11.07;3.15;;;24.90;55.60;;;;;;5041048;28;20017;-80
2022/11/16 09:25:08;;;;;;;8.52;2.05;;;24.90;55.80;;;;;;5045870;28;20041;-77
2022/11/16 09:27:35;;;;;;;5.93;2.03;;;25.00;55.00;;;;;;5050340;28;20024;-80
2022/11/16 09:30:01;;;;;;;9.02;2.20;;;25.00;54.70;;;;;;5046296;28;20415;-81
2022/11/16 09:32:28;;;;;;;5.25;1.80;;;25.00;54.40;;;;;;5045072;28;20035;-82
2022/11/16 09:34:54;;;;;;;7.30;2.85;;;25.00;53.80;;;;;;5039794;28;20542;-80
2022/11/16 09:37:21;;;;;;;6.63;1.65;;;25.10;53.80;;;;;;5040192;28;20022;-81
2022/11/16 09:39:47;;;;;;;8.82;1.98;;;25.10;53.70;;;;;;5045689;28;20025;-79
2022/11/16 09:42:47;;;;;;;8.23;1.15;;;25.20;53.50;;;;;;5040490;28;20500;-80
2022/11/16 09:45:34;;;;;;;6.05;1.98;;;25.20;53.30;;;;;;5048719;28;20395;-80
2022/11/16 09:48:04;;;;;;;24.98;3.78;;;25.30;53.00;;;;;;5045345;28;20020;-76
2022/11/16 09:50:58;;;;;;;26.40;4.93;;;25.30;53.20;;;;;;5044230;28;20534;-82
2022/11/16 09:53:54;;;;;;;6.68;2.13;;;25.30;53.10;;;;;;5050716;28;20120;-81
2022/11/16 09:56:29;;;;;;;16.65;2.78;;;25.40;52.70;;;;;;5042732;28;20035;-79
2022/11/16 09:59:08;;;;;;;15.85;2.40;;;25.40;52.70;;;;;;5049734;28;20050;-81
2022/11/16 10:01:40;;;;;;;10.77;2.45;;;25.50;53.20;;;;;;5047048;28;20545;-80
2022/11/16 12:53:08;;;;;;;42.72;5.30;;;27.50;50.50;;;;;;6159783;23;20017;-72
2022/11/16 12:55:50;;;;;;;12.50;1.42;;;27.50;50.80;;;;;;6144817;23;20024;-73
2022/11/16 12:58:48;;;;;;;11.90;2.42;;;27.50;50.80;;;;;;6159154;23;20488;-73
2022/11/16 13:01:37;;;;;;;5.30;1.27;;;27.50;50.80;;;;;;6030008;23;21045;-73
2022/11/16 13:04:23;;;;;;;5.68;1.65;;;27.60;50.50;;;;;;6134031;23;20012;-77
2022/11/16 13:07:13;;;;;;;3.75;1.13;;;27.60;50.50;;;;;;6158812;23;20006;-75
2022/11/16 13:09:46;;;;;;;2.95;1.50;;;27.70;49.70;;;;;;6160284;23;20371;-71
2022/11/16 13:12:18;;;;;;;5.65;1.70;;;27.70;49.80;;;;;;6159220;23;20101;-72
2022/11/16 13:14:47;;;;;;;3.63;1.63;;;27.70;49.60;;;;;;6159635;23;20016;-73
2022/11/16 13:17:27;;;;;;;7.60;1.60;;;27.70;49.00;;;;;;6160189;23;20456;-72
2022/11/16 13:20:13;;;;;;;7.85;1.67;;;27.70;48.90;;;;;;6158828;23;20009;-74
2022/11/16 13:22:45;;;;;;;4.72;1.58;;;27.70;48.90;;;;;;6061665;23;20002;-75
2022/11/16 13:25:22;;;;;;;20.95;2.78;;;27.80;48.80;;;;;;6158722;23;20005;-75
2022/11/16 13:28:22;;;;;;;10.82;2.47;;;27.80;49.10;;;;;;6152839;23;20413;-71
2022/11/16 13:31:04;;;;;;;2.45;0.68;;;27.80;48.70;;;;;;6153208;23;20013;-76
2022/11/16 13:33:52;;;;;;;2.55;0.88;;;27.80;48.50;;;;;;6151758;23;20463;-72
2022/11/16 13:36:44;;;;;;;2.67;1.23;;;27.80;48.40;;;;;;6126649;23;20337;-73
2022/11/16 13:39:19;;;;;;;5.25;1.73;;;27.80;48.10;;;;;;6153182;23;20010;-76
2022/11/16 13:42:06;;;;;;;7.55;1.75;;;27.70;48.10;;;;;;6152545;23;19993;-73
2022/11/16 13:44:33;;;;;;;3.15;1.45;;;27.70;48.00;;;;;;6153433;23;19998;-73
2022/11/16 13:47:03;;;;;;;8.30;2.00;;;27.70;47.90;;;;;;6151993;23;19997;-72
2022/11/16 13:49:39;;;;;;;7.68;1.88;;;27.70;47.70;;;;;;6152779;23;20006;-74
2022/11/16 13:52:09;;;;;;;2.72;1.02;;;27.70;47.50;;;;;;6177175;23;20100;-75
2022/11/16 13:54:38;;;;;;;3.60;1.10;;;27.70;47.30;;;;;;6181861;23;20016;-74
2022/11/16 13:57:34;;;;;;;6.47;1.83;;;27.70;47.20;;;;;;6182965;23;20413;-74
2022/11/16 14:00:00;;;;;;;5.30;1.38;;;27.70;47.30;;;;;;6181891;23;20336;-73
2022/11/16 14:02:39;;;;;;;4.30;0.82;;;27.60;47.10;;;;;;6182586;23;20008;-75
2022/11/16 14:05:42;;;;;;;6.13;1.50;;;27.60;46.90;;;;;;6182725;23;20009;-71
2022/11/16 14:08:36;;;;;;;4.00;1.85;;;27.60;47.30;;;;;;6180095;23;20032;-74
2022/11/16 14:11:03;;;;;;;3.28;0.85;;;27.60;46.40;;;;;;6181408;23;20012;-70
2022/11/16 14:13:35;;;;;;;6.30;0.95;;;27.60;46.40;;;;;;6181802;23;20008;-67
2022/11/16 14:16:28;;;;;;;2.85;1.17;;;27.60;46.30;;;;;;6181097;23;20455;-74
2022/11/16 14:18:59;;;;;;;3.67;0.98;;;27.60;46.30;;;;;;6136645;23;20524;-71
2022/11/16 14:21:37;;;;;;;4.15;1.00;;;27.60;46.60;;;;;;6180616;23;20032;-71
2022/11/16 14:24:46;;;;;;;17.42;3.00;;;27.70;46.50;;;;;;6180511;23;20518;-73
2022/11/16 14:27:41;;;;;;;27.80;3.63;;;27.60;46.80;;;;;;6062239;23;20003;-73
2022/11/16 14:30:32;;;;;;;2.83;1.60;;;27.50;46.30;;;;;;6061117;23;20079;-72
2022/11/16 14:32:59;;;;;;;5.22;1.17;;;27.40;45.00;;;;;;6162776;23;20498;-68
2022/11/16 14:35:31;;;;;;;7.80;2.65;;;27.20;45.70;;;;;;6181755;23;20436;-71
2022/11/16 14:38:04;;;;;;;12.93;3.83;;;27.10;47.20;;;;;;6181082;23;20043;-70
2022/11/16 14:40:35;;;;;;;34.20;8.15;;;27.10;47.80;;;;;;6182556;23;20001;-68
2022/11/16 14:43:07;;;;;;;15.05;6.20;;;27.10;47.50;;;;;;6181102;23;19997;-72
2022/11/16 14:45:36;;;;;;;16.90;3.50;;;27.10;47.80;;;;;;6179521;23;20366;-74
2022/11/16 14:48:12;;;;;;;4.57;2.72;;;27.10;47.90;;;;;;6180022;23;20009;-71
2022/11/16 14:50:40;;;;;;;4.45;2.05;;;27.10;47.90;;;;;;6181742;23;20024;-75
2022/11/16 14:53:12;;;;;;;5.82;1.52;;;27.10;47.00;;;;;;6181593;23;20324;-73
2022/11/16 14:55:51;;;;;;;13.35;2.58;;;27.10;46.60;;;;;;6180783;23;20035;-73
2022/11/16 14:58:22;;;;;;;12.63;1.67;;;27.10;46.40;;;;;;6182538;23;20079;-78
2022/11/16 15:01:03;;;;;;;6.13;2.10;;;27.10;47.00;;;;;;6181092;23;20005;-74
2022/11/16 15:04:10;;;;;;;7.72;2.03;;;27.10;47.20;;;;;;6182236;23;20019;-70
2022/11/16 15:06:51;;;;;;;7.75;2.10;;;27.10;47.10;;;;;;6061201;23;20085;-70
2022/11/16 15:09:37;;;;;;;3.95;1.98;;;27.10;46.50;;;;;;6172333;23;20396;-75
2022/11/16 15:14:57;;;;;;;5.82;1.67;;;27.10;46.20;;;;;;6181073;23;20024;-73
2022/11/16 15:17:25;;;;;;;7.80;1.90;;;27.10;46.00;;;;;;6181386;23;20080;-71
2022/11/16 15:19:56;;;;;;;2.38;1.40;;;27.10;46.20;;;;;;6180362;23;20008;-71
2022/11/16 15:22:27;;;;;;;6.32;1.60;;;27.00;46.00;;;;;;6180649;23;20011;-74
2022/11/16 15:24:55;;;;;;;3.95;1.40;;;27.00;45.90;;;;;;6182120;23;20001;-72
2022/11/16 15:27:25;;;;;;;4.28;2.08;;;27.00;45.90;;;;;;6180188;23;20008;-72
2022/11/16 15:30:35;;;;;;;6.38;2.25;;;27.00;45.80;;;;;;6180839;23;20001;-73
2022/11/16 15:33:08;;;;;;;8.60;2.30;;;26.90;45.90;;;;;;6179392;23;20001;-73
2022/11/16 15:35:36;;;;;;;4.53;1.33;;;26.90;45.80;;;;;;6179681;23;20062;-73
2022/11/16 15:38:19;;;;;;;3.03;1.23;;;26.90;45.90;;;;;;6181189;23;20084;-74
2022/11/16 15:40:53;;;;;;;5.07;3.65;;;26.80;45.80;;;;;;6180367;23;20012;-72
2022/11/16 15:43:23;;;;;;;5.85;2.72;;;26.80;45.80;;;;;;6181894;23;20321;-71
2022/11/16 15:45:50;;;;;;;4.15;2.63;;;26.80;45.90;;;;;;6180668;23;20008;-73
2022/11/16 15:48:23;;;;;;;5.15;1.65;;;26.80;45.80;;;;;;6179736;23;20435;-72
2022/11/16 15:51:23;;;;;;;8.43;2.30;;;26.80;45.70;;;;;;6180467;23;20008;-70
2022/11/16 15:53:50;;;;;;;5.88;1.42;;;26.70;45.70;;;;;;6179557;23;20005;-71
2022/11/16 15:56:20;;;;;;;6.05;1.35;;;26.70;45.60;;;;;;6180880;23;20021;-70
2022/11/16 15:58:47;;;;;;;1.92;1.10;;;26.60;45.50;;;;;;6181035;23;20011;-71
2022/11/16 16:01:15;;;;;;;6.22;1.02;;;26.60;45.50;;;;;;6178871;23;20338;-71
2022/11/16 16:03:53;;;;;;;4.97;1.13;;;26.50;45.30;;;;;;6181234;23;20051;-72
2022/11/16 16:06:52;;;;;;;3.90;1.15;;;26.50;45.30;;;;;;6180567;23;20077;-73
2022/11/16 16:09:29;;;;;;;2.65;1.05;;;26.50;45.30;;;;;;6180345;23;20005;-71
2022/11/16 16:12:26;;;;;;;7.22;3.40;;;26.40;45.40;;;;;;6179157;23;20012;-72
2022/11/16 16:15:22;;;;;;;7.10;6.38;;;26.40;45.50;;;;;;6179006;23;20447;-74
2022/11/16 16:17:53;;;;;;;5.88;5.25;;;26.30;45.60;;;;;;6178761;23;20009;-74
2022/11/16 16:20:29;;;;;;;5.18;3.00;;;26.30;45.60;;;;;;6179419;23;20001;-72
2022/11/16 16:23:07;;;;;;;6.03;2.40;;;26.30;45.80;;;;;;6178608;23;20029;-71
2022/11/16 16:25:35;;;;;;;24.38;3.35;;;26.20;45.80;;;;;;6180780;23;20001;-72
2022/11/16 16:28:02;;;;;;;6.45;1.55;;;26.20;45.70;;;;;;6179246;23;20440;-71
2022/11/16 16:30:31;;;;;;;5.05;1.27;;;26.10;45.60;;;;;;6180569;23;20005;-69
2022/11/16 16:32:58;;;;;;;4.13;1.83;;;26.10;45.70;;;;;;6176510;23;20044;-66
2022/11/16 16:35:25;;;;;;;3.92;1.20;;;26.10;45.80;;;;;;6177562;23;20021;-70
2022/11/16 16:37:57;;;;;;;3.55;0.93;;;26.00;45.90;;;;;;6178633;23;19997;-73
2022/11/16 16:40:25;;;;;;;2.53;1.20;;;26.00;46.10;;;;;;6179340;23;20444;-69
2022/11/16 16:43:31;;;;;;;3.25;1.27;;;25.90;46.20;;;;;;6178504;23;20010;-72
2022/11/16 16:46:37;;;;;;;2.90;1.10;;;25.90;46.40;;;;;;6178982;23;20008;-71
2022/11/16 16:49:03;;;;;;;;;;;25.80;46.50;;;;;;6179745;23;20005;-72
2022/11/16 16:51:29;;;;;;;3.20;1.33;;;25.70;46.60;;;;;;6177402;23;19923;-71
2022/11/16 16:53:56;;;;;;;3.45;1.52;;;25.70;46.70;;;;;;6178341;23;20003;-71
2022/11/16 16:56:22;;;;;;;15.60;2.80;;;25.60;46.80;;;;;;6179710;23;20403;-69
2022/11/16 16:58:49;;;;;;;6.53;1.10;;;25.50;46.90;;;;;;6178507;23;20012;-72
2022/11/16 17:01:18;;;;;;;3.20;1.15;;;25.50;47.30;;;;;;6178593;23;20449;-71
2022/11/16 17:03:44;;;;;;;7.55;1.73;;;25.40;47.50;;;;;;6179432;23;20095;-69
2022/11/16 17:06:11;;;;;;;5.00;1.45;;;25.40;47.70;;;;;;6181451;23;20091;-68
2022/11/16 17:08:38;;;;;;;1.73;1.30;;;25.30;47.70;;;;;;6181116;23;20005;-65
2022/11/16 17:11:08;;;;;;;3.58;1.50;;;25.30;47.70;;;;;;6180017;23;20028;-70
2022/11/16 17:13:35;;;;;;;4.15;2.13;;;25.30;47.80;;;;;;6176172;23;20694;-71
2022/11/16 17:16:07;;;;;;;2.80;1.00;;;25.20;47.80;;;;;;6181071;23;20091;-73
2022/11/16 17:18:33;;;;;;;1.90;0.70;;;25.20;48.00;;;;;;6181955;23;20711;-71
2022/11/16 17:21:08;;;;;;;4.47;1.02;;;25.20;48.00;;;;;;6180238;23;20055;-70
2022/11/16 17:23:35;;;;;;;7.10;1.52;;;25.20;48.20;;;;;;6181565;23;20079;-71
2022/11/16 17:26:08;;;;;;;4.00;1.23;;;25.20;48.30;;;;;;6181024;23;20001;-70
2022/11/16 17:28:35;;;;;;;3.28;1.45;;;25.10;48.20;;;;;;6180243;23;20104;-71
2022/11/16 17:31:03;;;;;;;2.88;1.27;;;25.10;48.20;;;;;;6181372;23;20026;-72
2022/11/16 17:33:37;;;;;;;2.50;1.10;;;25.10;48.20;;;;;;6179771;23;20336;-73
2022/11/16 17:36:05;;;;;;;4.85;1.38;;;25.00;48.30;;;;;;6181098;23;20084;-71
2022/11/16 17:38:33;;;;;;;5.75;1.30;;;25.00;48.40;;;;;;6179694;23;20064;-71
2022/11/16 17:41:08;;;;;;;5.80;1.70;;;25.00;48.40;;;;;;6181649;23;20001;-69
2022/11/16 17:43:35;;;;;;;6.95;2.72;;;25.00;48.40;;;;;;6181181;23;20012;-70
2022/11/16 17:46:02;;;;;;;5.10;4.45;;;24.90;48.50;;;;;;6180317;23;20000;-71
2022/11/16 17:48:32;;;;;;;5.65;3.00;;;24.90;48.50;;;;;;6180934;23;20008;-73
2022/11/16 17:50:59;;;;;;;10.57;2.40;;;24.90;48.60;;;;;;6177947;23;20955;-71
2022/11/16 17:53:26;;;;;;;5.57;2.85;;;24.80;48.70;;;;;;6180729;23;20035;-72
2022/11/16 17:55:52;;;;;;;6.00;1.48;;;24.80;48.80;;;;;;6179932;23;20437;-72
2022/11/16 17:58:34;;;;;;;2.58;1.38;;;24.70;48.90;;;;;;6182146;23;20005;-70
2022/11/16 18:01:00;;;;;;;4.97;0.93;;;24.70;49.00;;;;;;6181756;23;20001;-72
2022/11/16 18:03:30;;;;;;;2.90;2.10;;;24.70;49.20;;;;;;6179870;23;20009;-71
2022/11/16 18:06:14;;;;;;;5.47;3.00;;;24.70;49.20;;;;;;6180890;23;20004;-72
2022/11/16 18:08:43;;;;;;;9.15;1.95;;;24.70;50.00;;;;;;6179839;23;20075;-69
2022/11/16 18:11:40;;;;;;;4.15;1.70;;;24.60;49.40;;;;;;6179202;23;20055;-70
2022/11/16 18:14:07;;;;;;;3.85;1.50;;;24.60;49.50;;;;;;6180255;23;20075;-73
2022/11/16 18:16:37;;;;;;;4.95;1.30;;;24.60;49.70;;;;;;6181160;23;20349;-72
2022/11/16 18:19:05;;;;;;;2.88;1.40;;;24.60;49.90;;;;;;6180212;23;20003;-71
2022/11/16 18:21:37;;;;;;;5.90;2.10;;;24.50;50.10;;;;;;6180042;23;20001;-70
2022/11/16 18:24:04;;;;;;;5.40;2.00;;;24.50;50.30;;;;;;6181462;23;20012;-68
2022/11/16 18:26:36;;;;;;;5.93;3.45;;;24.50;50.50;;;;;;6180116;23;20001;-72
2022/11/16 18:29:11;;;;;;;6.90;4.68;;;24.40;50.60;;;;;;6182168;23;20011;-71
2022/11/16 18:31:42;;;;;;;4.30;2.83;;;24.40;50.60;;;;;;6178752;23;20005;-72
2022/11/16 18:34:10;;;;;;;11.75;3.17;;;24.40;50.70;;;;;;6181212;23;20099;-71
2022/11/16 18:36:45;;;;;;;4.80;2.50;;;24.40;50.80;;;;;;6179639;23;20436;-73